sensor_id;sensor_type;location;lat;lon;timestamp;pressure;altitude;pressure_sealevel;temperature;humidity
18755;BME280;35061;47.664;9.166;2022-07-09T00:01:32;102737.01;;;17.39;58.96
18755;BME280;35061;47.664;9.166;2022-07-09T00:04:00;102731.41;;;17.36;58.79
18755;BME280;35061;47.664;9.166;2022-07-09T00:06:27;102737.40;;;17.32;58.62
18755;BME280;35061;47.664;9.166;2022-07-09T00:08:56;102737.79;;;17.25;58.75
18755;BME280;35061;47.664;9.166;2022-07-09T00:11:24;102731.77;;;17.13;59.07
18755;BME280;35061;47.664;9.166;2022-07-09T00:13:52;102725.56;;;17.06;59.02
18755;BME280;35061;47.664;9.166;2022-07-09T00:16:19;102736.48;;;17.01;59.77
18755;BME280;35061;47.664;9.166;2022-07-09T00:18:47;102730.86;;;16.98;59.87
18755;BME280;35061;47.664;9.166;2022-07-09T00:21:15;102733.45;;;16.96;60.61
18755;BME280;35061;47.664;9.166;2022-07-09T00:23:43;102726.25;;;16.91;60.42
18755;BME280;35061;47.664;9.166;2022-07-09T00:26:10;102732.73;;;16.86;60.40
18755;BME280;35061;47.664;9.166;2022-07-09T00:28:38;102730.01;;;16.82;60.99
18755;BME280;35061;47.664;9.166;2022-07-09T00:31:06;102734.20;;;16.81;60.92
18755;BME280;35061;47.664;9.166;2022-07-09T00:33:34;102728.41;;;16.81;61.49
18755;BME280;35061;47.664;9.166;2022-07-09T00:36:02;102721.05;;;16.80;61.40
18755;BME280;35061;47.664;9.166;2022-07-09T00:38:30;102720.76;;;16.78;61.47
18755;BME280;35061;47.664;9.166;2022-07-09T00:40:58;102718.50;;;16.73;61.07
18755;BME280;35061;47.664;9.166;2022-07-09T00:43:26;102728.18;;;16.70;61.51
18755;BME280;35061;47.664;9.166;2022-07-09T00:45:53;102718.70;;;16.69;61.78
18755;BME280;35061;47.664;9.166;2022-07-09T00:48:21;102716.66;;;16.60;61.16
18755;BME280;35061;47.664;9.166;2022-07-09T00:50:49;102715.42;;;16.52;61.21
18755;BME280;35061;47.664;9.166;2022-07-09T00:53:20;102716.57;;;16.45;61.06
18755;BME280;35061;47.664;9.166;2022-07-09T00:55:48;102709.84;;;16.39;61.15
18755;BME280;35061;47.664;9.166;2022-07-09T00:58:17;102712.94;;;16.36;61.35
18755;BME280;35061;47.664;9.166;2022-07-09T01:00:45;102715.20;;;16.31;61.89
18755;BME280;35061;47.664;9.166;2022-07-09T01:03:13;102710.88;;;16.27;61.67
18755;BME280;35061;47.664;9.166;2022-07-09T01:05:41;102715.23;;;16.22;61.68
18755;BME280;35061;47.664;9.166;2022-07-09T01:08:09;102715.59;;;16.15;61.88
18755;BME280;35061;47.664;9.166;2022-07-09T01:10:37;102702.61;;;16.10;61.94
18755;BME280;35061;47.664;9.166;2022-07-09T01:13:05;102707.28;;;16.08;62.36
18755;BME280;35061;47.664;9.166;2022-07-09T01:15:33;102699.73;;;16.10;63.13
18755;BME280;35061;47.664;9.166;2022-07-09T01:18:01;102700.68;;;16.07;62.84
18755;BME280;35061;47.664;9.166;2022-07-09T01:20:29;102696.55;;;15.99;63.18
18755;BME280;35061;47.664;9.166;2022-07-09T01:22:58;102700.55;;;16.01;63.63
18755;BME280;35061;47.664;9.166;2022-07-09T01:25:40;102698.62;;;15.98;63.77
18755;BME280;35061;47.664;9.166;2022-07-09T01:28:09;102694.14;;;15.97;63.61
18755;BME280;35061;47.664;9.166;2022-07-09T01:30:38;102692.70;;;15.83;63.44
18755;BME280;35061;47.664;9.166;2022-07-09T01:33:07;102690.48;;;15.78;63.44
18755;BME280;35061;47.664;9.166;2022-07-09T01:35:35;102685.96;;;15.77;63.14
18755;BME280;35061;47.664;9.166;2022-07-09T01:38:03;102683.58;;;15.75;63.36
18755;BME280;35061;47.664;9.166;2022-07-09T01:40:31;102681.19;;;15.74;63.89
18755;BME280;35061;47.664;9.166;2022-07-09T01:42:58;102666.90;;;15.70;63.48
18755;BME280;35061;47.664;9.166;2022-07-09T01:45:26;102664.67;;;15.65;63.45
18755;BME280;35061;47.664;9.166;2022-07-09T01:47:54;102665.82;;;15.58;63.67
18755;BME280;35061;47.664;9.166;2022-07-09T01:50:22;102659.25;;;15.58;64.06
18755;BME280;35061;47.664;9.166;2022-07-09T01:52:50;102659.90;;;15.62;64.89
18755;BME280;35061;47.664;9.166;2022-07-09T01:55:18;102665.46;;;15.66;65.50
18755;BME280;35061;47.664;9.166;2022-07-09T01:57:46;102668.70;;;15.68;65.40
18755;BME280;35061;47.664;9.166;2022-07-09T02:00:13;102658.23;;;15.70;65.90
18755;BME280;35061;47.664;9.166;2022-07-09T02:02:42;102657.61;;;15.66;65.28
18755;BME280;35061;47.664;9.166;2022-07-09T02:05:09;102658.76;;;15.59;64.93
18755;BME280;35061;47.664;9.166;2022-07-09T02:07:37;102662.45;;;15.51;64.59
18755;BME280;35061;47.664;9.166;2022-07-09T02:10:06;102658.16;;;15.46;64.44
18755;BME280;35061;47.664;9.166;2022-07-09T02:12:33;102652.25;;;15.40;64.35
18755;BME280;35061;47.664;9.166;2022-07-09T02:15:01;102652.87;;;15.35;64.40
18755;BME280;35061;47.664;9.166;2022-07-09T02:17:30;102647.77;;;15.30;64.75
18755;BME280;35061;47.664;9.166;2022-07-09T02:19:58;102646.46;;;15.31;65.42
18755;BME280;35061;47.664;9.166;2022-07-09T02:22:26;102644.70;;;15.33;65.80
18755;BME280;35061;47.664;9.166;2022-07-09T02:24:53;102647.08;;;15.35;66.07
18755;BME280;35061;47.664;9.166;2022-07-09T02:27:21;102646.79;;;15.24;65.90
18755;BME280;35061;47.664;9.166;2022-07-09T02:29:49;102642.02;;;15.20;65.40
18755;BME280;35061;47.664;9.166;2022-07-09T02:32:17;102634.79;;;15.16;65.30
18755;BME280;35061;47.664;9.166;2022-07-09T02:34:45;102639.10;;;15.11;65.49
18755;BME280;35061;47.664;9.166;2022-07-09T02:37:13;102645.67;;;15.12;65.78
18755;BME280;35061;47.664;9.166;2022-07-09T02:39:40;102639.10;;;15.11;65.92
18755;BME280;35061;47.664;9.166;2022-07-09T02:42:08;102646.95;;;15.11;65.89
18755;BME280;35061;47.664;9.166;2022-07-09T02:44:36;102645.84;;;15.08;65.79
18755;BME280;35061;47.664;9.166;2022-07-09T02:47:04;102641.03;;;15.05;66.07
18755;BME280;35061;47.664;9.166;2022-07-09T02:49:31;102646.79;;;15.05;66.09
18755;BME280;35061;47.664;9.166;2022-07-09T02:51:59;102644.56;;;15.00;66.09
18755;BME280;35061;47.664;9.166;2022-07-09T02:54:29;102645.52;;;14.97;66.22
18755;BME280;35061;47.664;9.166;2022-07-09T02:56:56;102641.85;;;14.96;66.83
18755;BME280;35061;47.664;9.166;2022-07-09T02:59:25;102651.27;;;14.97;66.75
18755;BME280;35061;47.664;9.166;2022-07-09T03:01:53;102657.41;;;14.99;67.10
18755;BME280;35061;47.664;9.166;2022-07-09T03:04:21;102647.31;;;14.94;67.18
18755;BME280;35061;47.664;9.166;2022-07-09T03:06:48;102646.79;;;14.86;68.14
18755;BME280;35061;47.664;9.166;2022-07-09T03:09:16;102655.62;;;14.83;67.85
18755;BME280;35061;47.664;9.166;2022-07-09T03:11:44;102642.96;;;14.80;68.01
18755;BME280;35061;47.664;9.166;2022-07-09T03:14:12;102646.63;;;14.81;68.23
18755;BME280;35061;47.664;9.166;2022-07-09T03:16:39;102641.36;;;14.79;67.91
18755;BME280;35061;47.664;9.166;2022-07-09T03:19:07;102649.70;;;14.77;67.83
18755;BME280;35061;47.664;9.166;2022-07-09T03:21:35;102641.36;;;14.79;67.98
18755;BME280;35061;47.664;9.166;2022-07-09T03:24:02;102645.02;;;14.79;68.08
18755;BME280;35061;47.664;9.166;2022-07-09T03:26:31;102646.16;;;14.82;68.29
18755;BME280;35061;47.664;9.166;2022-07-09T03:28:58;102647.60;;;14.87;68.85
18755;BME280;35061;47.664;9.166;2022-07-09T03:31:26;102652.41;;;14.90;68.65
18755;BME280;35061;47.664;9.166;2022-07-09T03:33:54;102650.02;;;14.88;68.54
18755;BME280;35061;47.664;9.166;2022-07-09T03:36:22;102652.25;;;14.84;68.75
18755;BME280;35061;47.664;9.166;2022-07-09T03:38:49;102650.02;;;14.79;68.73
18755;BME280;35061;47.664;9.166;2022-07-09T03:41:17;102652.25;;;14.75;69.06
18755;BME280;35061;47.664;9.166;2022-07-09T03:43:45;102645.80;;;14.71;69.20
18755;BME280;35061;47.664;9.166;2022-07-09T03:46:13;102645.48;;;14.69;69.23
18755;BME280;35061;47.664;9.166;2022-07-09T03:48:41;102651.56;;;14.71;69.81
18755;BME280;35061;47.664;9.166;2022-07-09T03:51:08;102644.99;;;14.70;70.22
18755;BME280;35061;47.664;9.166;2022-07-09T03:53:36;102656.04;;;14.72;69.82
18755;BME280;35061;47.664;9.166;2022-07-09T03:56:04;102651.27;;;14.69;69.84
18755;BME280;35061;47.664;9.166;2022-07-09T03:58:32;102660.36;;;14.67;70.08
18755;BME280;35061;47.664;9.166;2022-07-09T04:01:01;102649.80;;;14.64;70.01
18755;BME280;35061;47.664;9.166;2022-07-09T04:03:29;102656.53;;;14.61;70.29
18755;BME280;35061;47.664;9.166;2022-07-09T04:05:56;102657.61;;;14.54;70.30
18755;BME280;35061;47.664;9.166;2022-07-09T04:08:24;102661.93;;;14.49;70.54
18755;BME280;35061;47.664;9.166;2022-07-09T04:10:52;102664.64;;;14.44;71.68
18755;BME280;35061;47.664;9.166;2022-07-09T04:13:20;102661.44;;;14.42;71.05
18755;BME280;35061;47.664;9.166;2022-07-09T04:15:47;102677.79;;;14.45;71.24
18755;BME280;35061;47.664;9.166;2022-07-09T04:18:15;102679.06;;;14.44;71.30
18755;BME280;35061;47.664;9.166;2022-07-09T04:20:43;102672.49;;;14.43;71.34
18755;BME280;35061;47.664;9.166;2022-07-09T04:23:11;102670.89;;;14.42;71.62
18755;BME280;35061;47.664;9.166;2022-07-09T04:25:39;102681.61;;;14.42;71.68
18755;BME280;35061;47.664;9.166;2022-07-09T04:28:07;102680.01;;;14.41;71.67
18755;BME280;35061;47.664;9.166;2022-07-09T04:30:34;102680.83;;;14.41;71.70
18755;BME280;35061;47.664;9.166;2022-07-09T04:33:02;102682.76;;;14.44;71.78
18755;BME280;35061;47.664;9.166;2022-07-09T04:35:30;102674.91;;;14.45;71.82
18755;BME280;35061;47.664;9.166;2022-07-09T04:37:58;102680.70;;;14.45;72.32
18755;BME280;35061;47.664;9.166;2022-07-09T04:40:25;102683.87;;;14.47;71.93
18755;BME280;35061;47.664;9.166;2022-07-09T04:42:53;102680.05;;;14.50;71.93
18755;BME280;35061;47.664;9.166;2022-07-09T04:45:21;102679.09;;;14.53;71.96
18755;BME280;35061;47.664;9.166;2022-07-09T04:47:49;102681.48;;;14.55;71.90
18755;BME280;35061;47.664;9.166;2022-07-09T04:50:17;102684.23;;;14.58;72.04
18755;BME280;35061;47.664;9.166;2022-07-09T04:52:44;102678.48;;;14.58;72.46
18755;BME280;35061;47.664;9.166;2022-07-09T04:55:12;102677.03;;;14.63;72.28
18755;BME280;35061;47.664;9.166;2022-07-09T04:57:40;102678.48;;;14.68;72.08
18755;BME280;35061;47.664;9.166;2022-07-09T05:00:09;102680.41;;;14.71;71.97
18755;BME280;35061;47.664;9.166;2022-07-09T05:02:38;102682.37;;;14.74;71.97
18755;BME280;35061;47.664;9.166;2022-07-09T05:05:06;102682.66;;;14.76;72.28
18755;BME280;35061;47.664;9.166;2022-07-09T05:07:35;102673.86;;;14.79;72.04
18755;BME280;35061;47.664;9.166;2022-07-09T05:10:03;102670.82;;;14.83;72.13
18755;BME280;35061;47.664;9.166;2022-07-09T05:12:31;102678.51;;;14.86;72.14
18755;BME280;35061;47.664;9.166;2022-07-09T05:14:59;102684.95;;;14.90;72.05
18755;BME280;35061;47.664;9.166;2022-07-09T05:17:27;102680.80;;;14.91;72.13
18755;BME280;35061;47.664;9.166;2022-07-09T05:19:55;102677.76;;;14.95;71.90
18755;BME280;35061;47.664;9.166;2022-07-09T05:22:22;102678.38;;;14.99;71.68
18755;BME280;35061;47.664;9.166;2022-07-09T05:24:50;102676.61;;;15.02;71.64
18755;BME280;35061;47.664;9.166;2022-07-09T05:27:18;102680.14;;;15.06;71.57
18755;BME280;35061;47.664;9.166;2022-07-09T05:29:46;102680.80;;;15.10;71.65
18755;BME280;35061;47.664;9.166;2022-07-09T05:32:13;102682.40;;;15.11;71.95
18755;BME280;35061;47.664;9.166;2022-07-09T05:34:41;102682.23;;;15.15;71.60
18755;BME280;35061;47.664;9.166;2022-07-09T05:37:09;102684.16;;;15.18;71.75
18755;BME280;35061;47.664;9.166;2022-07-09T05:39:39;102690.09;;;15.24;71.67
18755;BME280;35061;47.664;9.166;2022-07-09T05:42:07;102692.80;;;15.27;71.43
18755;BME280;35061;47.664;9.166;2022-07-09T05:44:35;102685.60;;;15.32;71.66
18755;BME280;35061;47.664;9.166;2022-07-09T05:47:03;102688.94;;;15.40;71.44
18755;BME280;35061;47.664;9.166;2022-07-09T05:49:31;102696.00;;;15.48;71.33
18755;BME280;35061;47.664;9.166;2022-07-09T05:51:59;102691.00;;;15.58;71.05
18755;BME280;35061;47.664;9.166;2022-07-09T05:54:27;102694.70;;;15.68;70.74
18755;BME280;35061;47.664;9.166;2022-07-09T05:56:55;102688.09;;;15.76;70.15
18755;BME280;35061;47.664;9.166;2022-07-09T05:59:23;102693.19;;;15.91;70.09
18755;BME280;35061;47.664;9.166;2022-07-09T06:01:51;102694.10;;;16.07;69.88
18755;BME280;35061;47.664;9.166;2022-07-09T06:04:18;102694.04;;;16.25;69.51
18755;BME280;35061;47.664;9.166;2022-07-09T06:06:46;102688.38;;;16.55;68.50
18755;BME280;35061;47.664;9.166;2022-07-09T06:09:14;102695.91;;;16.86;66.87
18755;BME280;35061;47.664;9.166;2022-07-09T06:11:42;102696.66;;;16.96;66.11
18755;BME280;35061;47.664;9.166;2022-07-09T06:14:09;102694.98;;;17.05;66.04
18755;BME280;35061;47.664;9.166;2022-07-09T06:16:37;102694.50;;;17.06;65.79
18755;BME280;35061;47.664;9.166;2022-07-09T06:19:05;102692.77;;;16.99;65.34
18755;BME280;35061;47.664;9.166;2022-07-09T06:21:32;102693.62;;;17.00;65.27
18755;BME280;35061;47.664;9.166;2022-07-09T06:24:00;102696.95;;;16.98;65.23
18755;BME280;35061;47.664;9.166;2022-07-09T06:26:28;102686.39;;;16.95;65.19
18755;BME280;35061;47.664;9.166;2022-07-09T06:28:56;102693.26;;;16.98;65.35
18755;BME280;35061;47.664;9.166;2022-07-09T06:31:24;102695.22;;;17.01;65.85
18755;BME280;35061;47.664;9.166;2022-07-09T06:33:52;102698.68;;;17.05;65.71
18755;BME280;35061;47.664;9.166;2022-07-09T06:36:25;102693.22;;;17.07;65.63
18755;BME280;35061;47.664;9.166;2022-07-09T06:38:53;102692.11;;;17.05;65.42
18755;BME280;35061;47.664;9.166;2022-07-09T06:41:40;102695.67;;;16.99;65.21
18755;BME280;35061;47.664;9.166;2022-07-09T06:44:07;102693.26;;;16.98;65.32
18755;BME280;35061;47.664;9.166;2022-07-09T06:46:36;102696.49;;;17.00;65.34
18755;BME280;35061;47.664;9.166;2022-07-09T06:49:05;102691.00;;;17.02;65.37
18755;BME280;35061;47.664;9.166;2022-07-09T06:51:33;102690.02;;;17.05;65.42
18755;BME280;35061;47.664;9.166;2022-07-09T06:54:01;102694.20;;;17.04;65.28
18755;BME280;35061;47.664;9.166;2022-07-09T06:56:29;102690.12;;;17.11;65.29
18755;BME280;35061;47.664;9.166;2022-07-09T06:58:56;102697.63;;;17.18;65.45
18755;BME280;35061;47.664;9.166;2022-07-09T07:01:24;102684.36;;;17.26;65.03
18755;BME280;35061;47.664;9.166;2022-07-09T07:03:52;102692.17;;;17.35;64.27
18755;BME280;35061;47.664;9.166;2022-07-09T07:06:20;102688.41;;;17.43;63.54
18755;BME280;35061;47.664;9.166;2022-07-09T07:08:47;102687.30;;;17.56;63.36
18755;BME280;35061;47.664;9.166;2022-07-09T07:11:15;102689.10;;;17.68;63.38
18755;BME280;35061;47.664;9.166;2022-07-09T07:13:43;102685.08;;;17.81;63.24
18755;BME280;35061;47.664;9.166;2022-07-09T07:16:10;102695.28;;;17.91;62.89
18755;BME280;35061;47.664;9.166;2022-07-09T07:18:38;102682.59;;;18.04;62.62
18755;BME280;35061;47.664;9.166;2022-07-09T07:21:06;102681.19;;;18.14;62.19
18755;BME280;35061;47.664;9.166;2022-07-09T07:23:34;102680.57;;;18.25;61.50
18755;BME280;35061;47.664;9.166;2022-07-09T07:26:01;102676.25;;;18.35;60.99
18755;BME280;35061;47.664;9.166;2022-07-09T07:28:29;102686.91;;;18.44;60.79
18755;BME280;35061;47.664;9.166;2022-07-09T07:30:57;102679.88;;;18.51;60.08
18755;BME280;35061;47.664;9.166;2022-07-09T07:33:25;102677.95;;;18.63;60.28
18755;BME280;35061;47.664;9.166;2022-07-09T07:35:53;102670.98;;;18.75;60.01
18755;BME280;35061;47.664;9.166;2022-07-09T07:38:21;102670.63;;;18.88;59.76
18755;BME280;35061;47.664;9.166;2022-07-09T07:40:48;102667.39;;;19.01;59.07
18755;BME280;35061;47.664;9.166;2022-07-09T07:43:16;102676.94;;;19.07;58.35
18755;BME280;35061;47.664;9.166;2022-07-09T07:45:44;102669.32;;;19.10;57.66
18755;BME280;35061;47.664;9.166;2022-07-09T07:48:12;102670.98;;;19.17;58.08
18755;BME280;35061;47.664;9.166;2022-07-09T07:50:40;102666.05;;;19.23;57.98
18755;BME280;35061;47.664;9.166;2022-07-09T07:53:08;102661.57;;;19.28;58.23
18755;BME280;35061;47.664;9.166;2022-07-09T07:55:36;102661.66;;;19.33;58.51
18755;BME280;35061;47.664;9.166;2022-07-09T07:58:03;102662.71;;;19.36;57.98
18755;BME280;35061;47.664;9.166;2022-07-09T08:00:31;102664.91;;;19.41;57.74
18755;BME280;35061;47.664;9.166;2022-07-09T08:02:59;102673.41;;;19.45;57.44
18755;BME280;35061;47.664;9.166;2022-07-09T08:05:27;102667.65;;;19.50;56.93
18755;BME280;35061;47.664;9.166;2022-07-09T08:07:54;102674.52;;;19.53;56.81
18755;BME280;35061;47.664;9.166;2022-07-09T08:10:22;102663.46;;;19.57;56.60
18755;BME280;35061;47.664;9.166;2022-07-09T08:12:50;102664.31;;;19.63;56.71
18755;BME280;35061;47.664;9.166;2022-07-09T08:15:18;102659.80;;;19.62;56.36
18755;BME280;35061;47.664;9.166;2022-07-09T08:17:46;102662.26;;;19.70;56.20
18755;BME280;35061;47.664;9.166;2022-07-09T08:20:13;102667.26;;;19.69;56.05
18755;BME280;35061;47.664;9.166;2022-07-09T08:22:42;102660.23;;;19.76;56.01
18755;BME280;35061;47.664;9.166;2022-07-09T08:25:10;102655.26;;;19.88;56.02
18755;BME280;35061;47.664;9.166;2022-07-09T08:27:40;102655.91;;;19.98;55.85
18755;BME280;35061;47.664;9.166;2022-07-09T08:30:08;102652.22;;;19.97;55.72
18755;BME280;35061;47.664;9.166;2022-07-09T08:32:36;102653.00;;;19.98;55.23
18755;BME280;35061;47.664;9.166;2022-07-09T08:35:06;102641.66;;;20.00;55.45
18755;BME280;35061;47.664;9.166;2022-07-09T08:37:33;102633.48;;;20.04;55.29
18755;BME280;35061;47.664;9.166;2022-07-09T08:40:01;102634.33;;;20.10;54.90
18755;BME280;35061;47.664;9.166;2022-07-09T08:42:29;102634.88;;;20.14;54.72
18755;BME280;35061;47.664;9.166;2022-07-09T08:44:59;102621.41;;;20.17;54.57
18755;BME280;35061;47.664;9.166;2022-07-09T08:47:27;102631.78;;;20.29;54.73
18755;BME280;35061;47.664;9.166;2022-07-09T08:49:57;102637.41;;;20.39;54.86
18755;BME280;35061;47.664;9.166;2022-07-09T08:52:27;102628.73;;;20.50;54.84
18755;BME280;35061;47.664;9.166;2022-07-09T08:54:54;102626.94;;;20.58;54.73
18755;BME280;35061;47.664;9.166;2022-07-09T08:57:24;102632.79;;;20.70;54.20
18755;BME280;35061;47.664;9.166;2022-07-09T08:59:52;102634.16;;;20.80;54.33
18755;BME280;35061;47.664;9.166;2022-07-09T09:02:20;102635.02;;;20.92;54.33
18755;BME280;35061;47.664;9.166;2022-07-09T09:04:47;102626.32;;;21.03;54.12
18755;BME280;35061;47.664;9.166;2022-07-09T09:07:16;102635.08;;;21.15;53.81
18755;BME280;35061;47.664;9.166;2022-07-09T09:09:45;102626.87;;;21.25;53.17
18755;BME280;35061;47.664;9.166;2022-07-09T09:12:13;102629.29;;;21.26;52.38
18755;BME280;35061;47.664;9.166;2022-07-09T09:14:48;102628.48;;;21.31;52.38
18755;BME280;35061;47.664;9.166;2022-07-09T09:17:17;102623.99;;;21.36;52.08
18755;BME280;35061;47.664;9.166;2022-07-09T09:19:45;102622.39;;;21.35;52.12
18755;BME280;35061;47.664;9.166;2022-07-09T09:22:17;102626.64;;;21.28;52.00
18755;BME280;35061;47.664;9.166;2022-07-09T09:24:49;102626.12;;;21.24;52.05
18755;BME280;35061;47.664;9.166;2022-07-09T09:27:17;102617.62;;;21.21;51.66
18755;BME280;35061;47.664;9.166;2022-07-09T09:29:50;102615.23;;;21.19;51.78
18755;BME280;35061;47.664;9.166;2022-07-09T09:32:21;102612.32;;;21.19;51.26
18755;BME280;35061;47.664;9.166;2022-07-09T09:34:52;102613.63;;;21.18;50.80
18755;BME280;35061;47.664;9.166;2022-07-09T09:37:27;102615.49;;;21.21;50.48
18755;BME280;35061;47.664;9.166;2022-07-09T09:39:56;102613.40;;;21.27;50.08
18755;BME280;35061;47.664;9.166;2022-07-09T09:42:24;102608.89;;;21.32;50.50
18755;BME280;35061;47.664;9.166;2022-07-09T09:44:55;102609.67;;;21.38;50.66
18755;BME280;35061;47.664;9.166;2022-07-09T09:47:25;102605.45;;;21.45;50.47
18755;BME280;35061;47.664;9.166;2022-07-09T09:49:56;102608.66;;;21.47;50.50
18755;BME280;35061;47.664;9.166;2022-07-09T09:52:26;102604.93;;;21.52;49.83
18755;BME280;35061;47.664;9.166;2022-07-09T09:54:54;102598.33;;;21.46;48.94
18755;BME280;35061;47.664;9.166;2022-07-09T09:57:24;102597.25;;;21.49;48.86
18755;BME280;35061;47.664;9.166;2022-07-09T09:59:56;102589.04;;;21.59;49.25
18755;BME280;35061;47.664;9.166;2022-07-09T10:02:25;102582.95;;;21.68;49.21
18755;BME280;35061;47.664;9.166;2022-07-09T10:04:53;102585.61;;;21.78;48.88
18755;BME280;35061;47.664;9.166;2022-07-09T10:07:20;102575.01;;;21.80;48.40
18755;BME280;35061;47.664;9.166;2022-07-09T10:09:58;102580.02;;;21.85;48.42
18755;BME280;35061;47.664;9.166;2022-07-09T10:12:34;102575.77;;;21.92;48.75
18755;BME280;35061;47.664;9.166;2022-07-09T10:15:20;102578.41;;;21.96;47.62
18755;BME280;35061;47.664;9.166;2022-07-09T10:17:49;102579.98;;;22.02;47.78
18755;BME280;35061;47.664;9.166;2022-07-09T10:20:17;102568.05;;;22.00;47.57
18755;BME280;35061;47.664;9.166;2022-07-09T10:22:48;102569.38;;;21.99;46.79
18755;BME280;35061;47.664;9.166;2022-07-09T10:25:27;102567.26;;;22.06;47.18
18755;BME280;35061;47.664;9.166;2022-07-09T10:27:55;102570.43;;;22.13;46.79
18755;BME280;35061;47.664;9.166;2022-07-09T10:30:28;102570.66;;;22.21;46.79
18755;BME280;35061;47.664;9.166;2022-07-09T10:33:12;102551.53;;;22.26;46.61
18755;BME280;35061;47.664;9.166;2022-07-09T10:35:49;102553.62;;;22.37;46.52
18755;BME280;35061;47.664;9.166;2022-07-09T10:38:19;102556.53;;;22.42;47.33
18755;BME280;35061;47.664;9.166;2022-07-09T10:40:57;102550.95;;;22.50;46.93
18755;BME280;35061;47.664;9.166;2022-07-09T10:43:42;102549.57;;;22.57;46.32
18755;BME280;35061;47.664;9.166;2022-07-09T10:46:14;102545.29;;;22.64;45.58
18755;BME280;35061;47.664;9.166;2022-07-09T10:48:44;102551.89;;;22.70;45.59
18755;BME280;35061;47.664;9.166;2022-07-09T10:51:19;102550.55;;;22.77;45.05
18755;BME280;35061;47.664;9.166;2022-07-09T10:53:48;102555.52;;;22.82;44.25
18755;BME280;35061;47.664;9.166;2022-07-09T10:56:25;102545.16;;;22.86;44.74
18755;BME280;35061;47.664;9.166;2022-07-09T10:58:53;102544.11;;;22.90;44.92
18755;BME280;35061;47.664;9.166;2022-07-09T11:01:23;102555.16;;;22.97;44.63
18755;BME280;35061;47.664;9.166;2022-07-09T11:03:52;102551.20;;;23.00;44.38
18755;BME280;35061;47.664;9.166;2022-07-09T11:06:21;102547.41;;;23.05;44.30
18755;BME280;35061;47.664;9.166;2022-07-09T11:08:49;102540.28;;;23.00;43.76
18755;BME280;35061;47.664;9.166;2022-07-09T11:11:23;102535.73;;;23.05;43.95
18755;BME280;35061;47.664;9.166;2022-07-09T11:13:52;102536.23;;;23.09;44.05
18755;BME280;35061;47.664;9.166;2022-07-09T11:16:23;102530.08;;;23.13;43.86
18755;BME280;35061;47.664;9.166;2022-07-09T11:18:51;102531.68;;;23.14;43.49
18755;BME280;35061;47.664;9.166;2022-07-09T11:21:23;102533.77;;;23.19;43.62
18755;BME280;35061;47.664;9.166;2022-07-09T11:23:52;102524.72;;;23.23;43.28
18755;BME280;35061;47.664;9.166;2022-07-09T11:26:20;102521.77;;;23.28;43.74
18755;BME280;35061;47.664;9.166;2022-07-09T11:28:48;102517.52;;;23.30;43.58
18755;BME280;35061;47.664;9.166;2022-07-09T11:31:16;102511.93;;;23.32;43.70
18755;BME280;35061;47.664;9.166;2022-07-09T11:33:44;102508.20;;;23.31;43.71
18755;BME280;35061;47.664;9.166;2022-07-09T11:37:12;102505.52;;;23.33;43.89
18755;BME280;35061;47.664;9.166;2022-07-09T11:39:37;102500.45;;;23.34;44.16
18755;BME280;35061;47.664;9.166;2022-07-09T11:42:05;102501.20;;;23.40;44.57
18755;BME280;35061;47.664;9.166;2022-07-09T11:44:33;102492.41;;;23.46;44.22
18755;BME280;35061;47.664;9.166;2022-07-09T11:49:39;102493.06;;;23.58;44.97
18755;BME280;35061;47.664;9.166;2022-07-09T11:54:57;102485.51;;;23.68;44.48
18755;BME280;35061;47.664;9.166;2022-07-09T11:57:26;102479.36;;;23.72;43.76
18755;BME280;35061;47.664;9.166;2022-07-09T11:59:54;102482.21;;;23.77;43.98
18755;BME280;35061;47.664;9.166;2022-07-09T12:02:26;102483.48;;;23.82;44.09
18755;BME280;35061;47.664;9.166;2022-07-09T12:04:58;102478.94;;;23.87;43.96
18755;BME280;35061;47.664;9.166;2022-07-09T12:07:26;102477.27;;;23.91;44.05
18755;BME280;35061;47.664;9.166;2022-07-09T12:10:27;102475.41;;;23.94;43.35
18755;BME280;35061;47.664;9.166;2022-07-09T12:12:56;102478.77;;;23.98;42.29
18755;BME280;35061;47.664;9.166;2022-07-09T12:15:24;102476.35;;;24.02;42.87
18755;BME280;35061;47.664;9.166;2022-07-09T12:17:53;102470.24;;;24.06;42.59
18755;BME280;35061;47.664;9.166;2022-07-09T12:20:26;102456.84;;;24.10;41.71
18755;BME280;35061;47.664;9.166;2022-07-09T12:22:54;102455.52;;;24.11;41.66
18755;BME280;35061;47.664;9.166;2022-07-09T12:25:22;102462.62;;;24.16;41.96
18755;BME280;35061;47.664;9.166;2022-07-09T12:27:50;102459.38;;;24.20;41.65
18755;BME280;35061;47.664;9.166;2022-07-09T12:30:18;102452.45;;;24.23;40.60
18755;BME280;35061;47.664;9.166;2022-07-09T12:32:47;102455.03;;;24.27;40.42
18755;BME280;35061;47.664;9.166;2022-07-09T12:35:15;102452.29;;;24.34;41.05
18755;BME280;35061;47.664;9.166;2022-07-09T12:37:43;102451.96;;;24.38;40.89
18755;BME280;35061;47.664;9.166;2022-07-09T12:40:11;102447.71;;;24.39;41.05
18755;BME280;35061;47.664;9.166;2022-07-09T12:42:39;102451.08;;;24.43;41.06
18755;BME280;35061;47.664;9.166;2022-07-09T12:45:07;102445.23;;;24.43;41.06
18755;BME280;35061;47.664;9.166;2022-07-09T12:47:36;102437.48;;;24.46;40.67
18755;BME280;35061;47.664;9.166;2022-07-09T12:50:05;102438.59;;;24.43;40.16
18755;BME280;35061;47.664;9.166;2022-07-09T12:52:33;102442.09;;;24.41;40.39
18755;BME280;35061;47.664;9.166;2022-07-09T12:55:02;102443.10;;;24.44;40.81
18755;BME280;35061;47.664;9.166;2022-07-09T12:57:30;102439.37;;;24.43;40.96
18755;BME280;35061;47.664;9.166;2022-07-09T12:59:57;102434.07;;;24.42;40.95
18755;BME280;35061;47.664;9.166;2022-07-09T13:02:25;102427.66;;;24.43;41.28
18755;BME280;35061;47.664;9.166;2022-07-09T13:04:53;102430.90;;;24.39;40.29